Time;durP1;ratioP1;P1;durP2;ratioP2;P2;SDS_P1;SDS_P2;PMS_P1;PMS_P2;Temp;Humidity;BMP_temperature;BMP_pressure;BME280_temperature;BME280_humidity;BME280_pressure;Samples;Min_cycle;Max_cycle;Signal;HPM_P1;HPM_P2
2022/03/19 00:01:17;;;;;;;9.73;5.40;;;;;;;;;;5017399;28;20243;-83
2022/03/19 00:03:44;;;;;;;11.00;4.90;;;;;;;;;;5022436;28;20217;-83
2022/03/19 00:06:11;;;;;;;9.63;4.57;;;;;;;;;;5020760;28;20322;-83
2022/03/19 00:08:39;;;;;;;10.97;5.07;;;;;;;;;;5018044;28;20233;-83
2022/03/19 00:11:06;;;;;;;9.47;4.83;;;;;;;;;;5017093;28;20314;-84
2022/03/19 00:13:35;;;;;;;9.40;5.27;;;;;;;;;;5016436;28;20202;-83
2022/03/19 00:16:02;;;;;;;7.43;4.47;;;;;;;;;;5017778;28;20326;-84
2022/03/19 00:18:30;;;;;;;7.87;4.73;;;;;;;;;;5016810;28;20217;-84
2022/03/19 00:20:57;;;;;;;10.60;4.50;;;;;;;;;;5016551;28;20231;-84
2022/03/19 00:23:24;;;;;;;9.77;4.60;;;;;;;;;;5018249;28;20211;-83
2022/03/19 00:25:51;;;;;;;7.07;4.40;;;;;;;;;;5016662;28;20242;-83
2022/03/19 00:28:19;;;;;;;6.93;4.53;;;;;;;;;;5016688;28;20211;-83
2022/03/19 00:30:46;;;;;;;7.63;4.53;;;;;;;;;;5016665;28;20301;-84
2022/03/19 00:33:14;;;;;;;9.60;4.43;;;;;;;;;;5016897;28;20581;-84
2022/03/19 00:35:42;;;;;;;8.20;4.57;;;;;;;;;;5015726;28;20235;-84
2022/03/19 00:38:09;;;;;;;9.80;4.67;;;;;;;;;;5016238;28;20211;-84
2022/03/19 00:40:36;;;;;;;8.37;4.90;;;;;;;;;;5016055;28;20229;-84
2022/03/19 00:43:03;;;;;;;8.40;4.53;;;;;;;;;;5016051;28;20222;-84
2022/03/19 00:45:31;;;;;;;6.43;4.10;;;;;;;;;;5016698;28;20242;-84
2022/03/19 00:47:58;;;;;;;11.20;5.13;;;;;;;;;;5017031;28;20218;-84
2022/03/19 00:50:25;;;;;;;9.37;5.20;;;;;;;;;;5015758;28;20261;-85
2022/03/19 00:52:54;;;;;;;14.37;6.17;;;;;;;;;;5017208;28;20227;-84
2022/03/19 00:55:21;;;;;;;8.27;4.80;;;;;;;;;;5016406;28;20218;-84
2022/03/19 00:57:49;;;;;;;10.60;4.63;;;;;;;;;;5031421;28;20210;-84
2022/03/19 01:00:16;;;;;;;9.50;4.73;;;;;;;;;;5033801;28;20229;-83
2022/03/19 01:02:44;;;;;;;7.70;4.33;;;;;;;;;;5017914;28;20237;-84
2022/03/19 01:05:11;;;;;;;9.47;4.67;;;;;;;;;;5017291;28;20203;-83
2022/03/19 01:07:42;;;;;;;9.80;4.50;;;;;;;;;;5018408;28;20211;-85
2022/03/19 01:10:11;;;;;;;12.70;4.50;;;;;;;;;;5016277;28;20227;-84
2022/03/19 01:12:38;;;;;;;17.93;5.67;;;;;;;;;;5029945;28;20232;-84
2022/03/19 01:15:05;;;;;;;6.77;4.70;;;;;;;;;;5034031;28;20206;-84
2022/03/19 01:17:32;;;;;;;7.83;4.70;;;;;;;;;;5036850;28;20207;-84
2022/03/19 01:20:01;;;;;;;7.93;4.77;;;;;;;;;;5052934;28;20200;-84
2022/03/19 01:22:28;;;;;;;8.47;4.23;;;;;;;;;;5040822;28;20251;-84
2022/03/19 01:24:56;;;;;;;7.60;4.97;;;;;;;;;;5022473;28;20218;-84
2022/03/19 01:27:24;;;;;;;9.93;5.13;;;;;;;;;;5015444;28;20238;-84
2022/03/19 01:29:52;;;;;;;8.73;5.00;;;;;;;;;;5017081;28;20242;-83
2022/03/19 01:32:19;;;;;;;9.77;4.70;;;;;;;;;;5026808;28;20240;-84
2022/03/19 01:34:46;;;;;;;10.73;4.20;;;;;;;;;;5036901;28;20201;-85
2022/03/19 01:37:13;;;;;;;8.83;4.47;;;;;;;;;;5025969;28;20226;-84
2022/03/19 01:39:40;;;;;;;9.67;4.40;;;;;;;;;;5031101;28;20600;-83
2022/03/19 01:42:07;;;;;;;9.00;4.40;;;;;;;;;;5025377;28;20235;-84
2022/03/19 01:44:35;;;;;;;11.90;5.00;;;;;;;;;;5030823;28;20205;-84
2022/03/19 01:47:04;;;;;;;8.77;4.50;;;;;;;;;;5023726;28;20241;-83
2022/03/19 01:49:31;;;;;;;7.77;4.27;;;;;;;;;;5016287;28;20526;-84
2022/03/19 01:51:59;;;;;;;8.30;4.23;;;;;;;;;;5015555;28;20297;-84
2022/03/19 01:54:27;;;;;;;8.40;5.13;;;;;;;;;;5025006;28;20199;-84
2022/03/19 01:56:55;;;;;;;8.83;4.77;;;;;;;;;;5035315;28;20247;-84
2022/03/19 01:59:23;;;;;;;10.43;5.00;;;;;;;;;;5025414;28;20202;-83
2022/03/19 02:01:52;;;;;;;9.47;5.27;;;;;;;;;;5033787;28;20234;-84
2022/03/19 02:04:19;;;;;;;6.30;4.70;;;;;;;;;;5028954;28;20205;-83
2022/03/19 02:06:47;;;;;;;10.07;4.97;;;;;;;;;;5026499;28;20267;-84
2022/03/19 02:09:14;;;;;;;8.07;4.60;;;;;;;;;;5021356;28;20256;-84
2022/03/19 02:11:41;;;;;;;8.67;4.73;;;;;;;;;;5015414;28;20238;-84
2022/03/19 02:14:09;;;;;;;7.27;4.77;;;;;;;;;;5021841;28;20198;-84
2022/03/19 02:16:36;;;;;;;10.60;4.07;;;;;;;;;;5034792;28;20261;-84
2022/03/19 02:19:04;;;;;;;11.37;5.50;;;;;;;;;;5017934;28;20206;-84
2022/03/19 02:21:40;;;;;;;9.77;4.57;;;;;;;;;;5014789;28;20289;-84
2022/03/19 02:26:53;;;;;;;11.73;5.30;;;;;;;;;;5015094;28;20240;-82
2022/03/19 02:29:21;;;;;;;11.63;4.90;;;;;;;;;;5027430;28;20245;-83
2022/03/19 02:31:49;;;;;;;8.13;5.83;;;;;;;;;;5027861;28;20242;-82
2022/03/19 02:34:16;;;;;;;11.20;5.23;;;;;;;;;;5016552;28;20234;-83
2022/03/19 02:36:43;;;;;;;12.97;5.33;;;;;;;;;;5029790;28;20242;-84
2022/03/19 02:39:12;;;;;;;9.20;5.97;;;;;;;;;;5017431;28;20210;-84
2022/03/19 02:41:42;;;;;;;8.47;5.97;;;;;;;;;;5022403;28;20234;-84
2022/03/19 02:44:10;;;;;;;9.73;5.13;;;;;;;;;;5031228;28;20643;-83
2022/03/19 02:46:38;;;;;;;8.90;4.63;;;;;;;;;;5015897;28;20265;-83
2022/03/19 02:49:05;;;;;;;9.47;5.13;;;;;;;;;;5024372;28;20202;-83
2022/03/19 02:51:34;;;;;;;11.27;5.60;;;;;;;;;;5035245;28;20236;-83
2022/03/19 02:54:01;;;;;;;11.80;6.17;;;;;;;;;;5032036;28;20731;-83
2022/03/19 02:56:30;;;;;;;10.20;5.47;;;;;;;;;;5016223;28;20230;-85
2022/03/19 02:58:57;;;;;;;9.27;5.40;;;;;;;;;;5016704;28;20204;-83
2022/03/19 03:01:24;;;;;;;9.73;5.30;;;;;;;;;;5016660;28;20737;-83
2022/03/19 03:03:51;;;;;;;14.90;5.83;;;;;;;;;;5019557;28;20214;-83
2022/03/19 03:06:20;;;;;;;11.57;5.20;;;;;;;;;;5036264;28;20696;-84
2022/03/19 03:08:47;;;;;;;13.00;5.13;;;;;;;;;;5038230;28;20207;-84
2022/03/19 03:11:14;;;;;;;8.80;4.70;;;;;;;;;;5036643;28;20317;-84
2022/03/19 03:13:43;;;;;;;11.17;5.73;;;;;;;;;;5025245;28;20203;-84
2022/03/19 03:16:10;;;;;;;12.83;5.27;;;;;;;;;;5016649;28;20757;-84
2022/03/19 03:18:38;;;;;;;7.63;5.10;;;;;;;;;;5017430;28;20242;-84
2022/03/19 03:21:05;;;;;;;8.60;4.90;;;;;;;;;;5017482;28;20664;-84
2022/03/19 03:23:32;;;;;;;12.20;4.90;;;;;;;;;;5017867;28;20214;-84
2022/03/19 03:25:59;;;;;;;9.27;4.17;;;;;;;;;;5017344;28;20730;-84
2022/03/19 03:28:27;;;;;;;9.80;4.90;;;;;;;;;;5018613;28;20212;-84
2022/03/19 03:30:56;;;;;;;9.03;5.23;;;;;;;;;;5030304;28;20340;-83
2022/03/19 03:33:23;;;;;;;9.23;4.80;;;;;;;;;;5030316;28;20210;-83
2022/03/19 03:35:50;;;;;;;10.50;4.73;;;;;;;;;;5020932;28;20235;-84
2022/03/19 03:38:17;;;;;;;7.93;4.67;;;;;;;;;;5021577;28;20638;-84
2022/03/19 03:40:44;;;;;;;8.10;4.90;;;;;;;;;;5020898;28;20697;-84
2022/03/19 03:43:11;;;;;;;7.00;4.47;;;;;;;;;;5021168;28;20567;-83
2022/03/19 03:45:39;;;;;;;7.70;4.30;;;;;;;;;;5020108;28;20243;-83
2022/03/19 03:48:07;;;;;;;9.33;4.93;;;;;;;;;;5020710;28;20207;-83
2022/03/19 03:50:35;;;;;;;6.83;4.23;;;;;;;;;;5019410;28;20234;-84
2022/03/19 03:53:03;;;;;;;5.97;4.23;;;;;;;;;;5021688;28;20223;-84
2022/03/19 03:55:30;;;;;;;7.30;4.97;;;;;;;;;;5019193;28;20238;-83
2022/03/19 03:57:57;;;;;;;8.50;4.50;;;;;;;;;;5020355;28;20203;-84
2022/03/19 04:00:24;;;;;;;9.67;5.07;;;;;;;;;;5018188;28;20250;-84
2022/03/19 04:02:51;;;;;;;8.33;4.33;;;;;;;;;;5020139;28;20265;-84
2022/03/19 04:05:20;;;;;;;9.97;4.60;;;;;;;;;;5019398;28;20212;-84
2022/03/19 04:07:47;;;;;;;6.73;4.43;;;;;;;;;;5018169;28;20656;-84
2022/03/19 04:10:14;;;;;;;6.60;4.40;;;;;;;;;;5018900;28;20223;-83
2022/03/19 04:12:41;;;;;;;13.40;4.67;;;;;;;;;;5018288;28;20234;-84
2022/03/19 04:15:09;;;;;;;10.30;5.53;;;;;;;;;;5019444;28;20637;-84
2022/03/19 04:17:36;;;;;;;9.40;5.23;;;;;;;;;;5017842;28;20206;-82
2022/03/19 04:20:05;;;;;;;6.50;4.63;;;;;;;;;;5017551;28;20209;-82
2022/03/19 04:22:37;;;;;;;9.60;5.40;;;;;;;;;;5018749;28;20669;-82
2022/03/19 04:25:04;;;;;;;12.40;5.27;;;;;;;;;;5020283;28;20607;-82
2022/03/19 04:27:31;;;;;;;9.30;5.43;;;;;;;;;;5018948;28;20204;-83
2022/03/19 04:29:58;;;;;;;9.10;5.20;;;;;;;;;;5019250;28;20219;-84
2022/03/19 04:32:25;;;;;;;6.73;5.00;;;;;;;;;;5037455;28;20230;-84
2022/03/19 04:34:52;;;;;;;8.00;5.03;;;;;;;;;;5038793;28;20211;-84
2022/03/19 04:37:19;;;;;;;10.37;4.60;;;;;;;;;;5034719;28;20231;-83
2022/03/19 04:39:48;;;;;;;5.50;4.60;;;;;;;;;;5037721;28;20207;-84
2022/03/19 04:42:16;;;;;;;15.60;5.73;;;;;;;;;;5028625;28;20238;-83
2022/03/19 04:44:43;;;;;;;10.70;4.80;;;;;;;;;;5028723;28;20210;-84
2022/03/19 04:47:10;;;;;;;8.93;4.80;;;;;;;;;;5025318;28;20237;-82
2022/03/19 04:49:37;;;;;;;9.50;4.73;;;;;;;;;;5019313;28;20204;-84
2022/03/19 04:52:05;;;;;;;11.10;4.87;;;;;;;;;;5017899;28;20242;-83
2022/03/19 04:54:32;;;;;;;7.17;4.50;;;;;;;;;;5018521;28;20210;-83
2022/03/19 04:57:02;;;;;;;5.70;4.50;;;;;;;;;;5024838;28;20242;-83
2022/03/19 04:59:29;;;;;;;9.67;5.07;;;;;;;;;;5018544;28;20209;-83
2022/03/19 05:01:56;;;;;;;14.20;4.27;;;;;;;;;;5017376;28;20231;-82
2022/03/19 05:04:23;;;;;;;5.87;4.37;;;;;;;;;;5017818;28;20207;-82
2022/03/19 05:06:51;;;;;;;10.07;4.50;;;;;;;;;;5017505;28;20235;-82
2022/03/19 05:12:06;;;;;;;7.27;5.03;;;;;;;;;;4991897;28;20230;-82
2022/03/19 05:14:33;;;;;;;5.53;4.53;;;;;;;;;;5017350;28;20200;-83
2022/03/19 05:17:01;;;;;;;7.80;5.07;;;;;;;;;;5016074;28;20293;-82
2022/03/19 05:19:28;;;;;;;6.23;4.50;;;;;;;;;;5017795;28;20570;-83
2022/03/19 05:21:55;;;;;;;7.40;4.13;;;;;;;;;;5016116;28;20231;-81
2022/03/19 05:24:22;;;;;;;8.80;4.70;;;;;;;;;;5016570;28;20209;-83
2022/03/19 05:26:49;;;;;;;7.33;4.43;;;;;;;;;;5015885;28;20938;-82
2022/03/19 05:29:17;;;;;;;7.53;4.03;;;;;;;;;;5016441;28;20261;-82
2022/03/19 05:31:44;;;;;;;7.93;4.57;;;;;;;;;;5015837;28;20246;-83
2022/03/19 05:36:56;;;;;;;5.17;4.00;;;;;;;;;;5016106;28;20319;-83
2022/03/19 05:39:23;;;;;;;7.00;4.27;;;;;;;;;;5016332;28;20211;-82
2022/03/19 05:41:50;;;;;;;9.80;4.40;;;;;;;;;;5015159;28;20262;-84
2022/03/19 05:44:18;;;;;;;9.93;4.50;;;;;;;;;;5024435;28;20206;-81
2022/03/19 05:46:45;;;;;;;5.60;4.03;;;;;;;;;;5020602;28;20239;-82
2022/03/19 05:49:13;;;;;;;6.77;4.30;;;;;;;;;;5016819;28;20207;-83
2022/03/19 05:51:40;;;;;;;8.23;4.67;;;;;;;;;;5015448;28;20235;-83
2022/03/19 05:54:07;;;;;;;5.37;4.00;;;;;;;;;;5016459;28;20214;-82
2022/03/19 05:56:34;;;;;;;11.73;4.60;;;;;;;;;;5020930;28;20592;-81
2022/03/19 05:59:01;;;;;;;11.07;4.67;;;;;;;;;;5035951;28;20210;-82
2022/03/19 06:01:29;;;;;;;7.37;4.30;;;;;;;;;;5016313;28;20238;-82
2022/03/19 06:03:56;;;;;;;8.20;4.10;;;;;;;;;;5022312;28;20285;-81
2022/03/19 06:06:24;;;;;;;5.70;4.43;;;;;;;;;;5025514;28;20301;-81
2022/03/19 06:08:51;;;;;;;14.33;4.77;;;;;;;;;;5019842;28;20240;-81
2022/03/19 06:11:18;;;;;;;10.03;4.43;;;;;;;;;;5017901;28;20239;-82
2022/03/19 06:13:45;;;;;;;6.57;3.97;;;;;;;;;;5020046;28;20210;-82
2022/03/19 06:16:12;;;;;;;10.60;5.17;;;;;;;;;;5033690;28;20234;-81
2022/03/19 06:18:45;;;;;;;7.47;5.13;;;;;;;;;;5037221;28;20206;-81
2022/03/19 06:21:13;;;;;;;9.50;4.97;;;;;;;;;;5034028;28;20227;-82
2022/03/19 06:23:40;;;;;;;14.93;4.80;;;;;;;;;;5018252;28;20257;-83
2022/03/19 06:26:07;;;;;;;8.37;4.27;;;;;;;;;;5022050;28;20219;-82
2022/03/19 06:28:34;;;;;;;7.10;4.47;;;;;;;;;;5026475;28;20213;-82
2022/03/19 06:31:01;;;;;;;11.17;4.43;;;;;;;;;;5025264;28;20241;-82
2022/03/19 06:33:28;;;;;;;6.73;4.63;;;;;;;;;;5018129;28;20628;-83
2022/03/19 06:38:55;;;;;;;7.20;4.97;;;;;;;;;;4936931;29;20249;-82
2022/03/19 06:41:23;;;;;;;13.57;5.07;;;;;;;;;;4937064;29;20233;-82
2022/03/19 06:43:50;;;;;;;9.97;5.30;;;;;;;;;;4972612;28;20271;-83
2022/03/19 06:46:17;;;;;;;8.70;4.77;;;;;;;;;;5030947;28;20238;-82
2022/03/19 06:48:46;;;;;;;7.93;5.00;;;;;;;;;;5036540;28;20232;-83
2022/03/19 06:51:15;;;;;;;7.43;4.60;;;;;;;;;;5029156;28;20280;-83
2022/03/19 06:53:42;;;;;;;6.17;5.00;;;;;;;;;;5032641;28;20211;-84
2022/03/19 06:56:09;;;;;;;11.87;5.00;;;;;;;;;;5021922;28;20239;-84
2022/03/19 06:58:37;;;;;;;13.03;4.93;;;;;;;;;;5014949;28;20242;-83
2022/03/19 07:01:04;;;;;;;14.83;5.07;;;;;;;;;;5014056;28;20258;-85
2022/03/19 07:03:31;;;;;;;7.53;4.37;;;;;;;;;;5014221;28;20200;-86
2022/03/19 07:05:58;;;;;;;9.97;5.10;;;;;;;;;;5028345;28;20237;-85
2022/03/19 07:08:27;;;;;;;12.53;4.87;;;;;;;;;;5038920;28;20210;-86
2022/03/19 07:10:54;;;;;;;10.43;4.50;;;;;;;;;;5038710;28;20234;-85
2022/03/19 07:13:21;;;;;;;12.47;4.67;;;;;;;;;;5039087;28;20217;-87
2022/03/19 07:15:48;;;;;;;6.60;4.87;;;;;;;;;;5018733;28;20238;-87
2022/03/19 07:18:15;;;;;;;13.83;4.47;;;;;;;;;;5020402;28;20218;-84
2022/03/19 07:20:42;;;;;;;11.70;5.17;;;;;;;;;;5019037;28;20648;-86
2022/03/19 07:23:10;;;;;;;8.73;5.10;;;;;;;;;;5019492;28;20211;-86
2022/03/19 07:25:39;;;;;;;8.97;5.30;;;;;;;;;;5018750;28;20230;-86
2022/03/19 07:28:07;;;;;;;10.23;5.33;;;;;;;;;;5018260;28;20196;-86
2022/03/19 07:30:34;;;;;;;11.57;5.03;;;;;;;;;;5018526;28;20231;-86
2022/03/19 07:33:02;;;;;;;6.93;5.17;;;;;;;;;;5019237;28;20231;-85
2022/03/19 07:35:29;;;;;;;7.43;4.37;;;;;;;;;;5018667;28;20239;-85
2022/03/19 07:37:57;;;;;;;19.10;5.53;;;;;;;;;;5019871;28;20579;-85
2022/03/19 07:43:08;;;;;;;9.60;4.90;;;;;;;;;;5033913;28;20938;-86
2022/03/19 07:45:35;;;;;;;9.27;4.73;;;;;;;;;;5018769;28;20258;-86
2022/03/19 07:48:03;;;;;;;10.27;5.43;;;;;;;;;;5019392;28;20595;-88
2022/03/19 07:50:30;;;;;;;15.20;5.17;;;;;;;;;;5034151;28;20231;-86
2022/03/19 07:52:57;;;;;;;10.67;5.23;;;;;;;;;;5039560;28;20233;-86
2022/03/19 07:55:25;;;;;;;7.17;4.90;;;;;;;;;;5040052;28;20655;-86
2022/03/19 07:57:52;;;;;;;10.67;5.40;;;;;;;;;;5036058;28;20201;-86
2022/03/19 08:00:21;;;;;;;12.23;5.47;;;;;;;;;;5040441;28;20224;-86
2022/03/19 08:02:48;;;;;;;14.20;5.30;;;;;;;;;;5039389;28;20914;-84
2022/03/19 08:05:15;;;;;;;9.53;5.13;;;;;;;;;;5034674;28;20648;-85
2022/03/19 08:07:42;;;;;;;13.10;5.83;;;;;;;;;;5025682;28;20218;-85
2022/03/19 08:10:10;;;;;;;8.87;5.43;;;;;;;;;;5038572;28;20210;-85
2022/03/19 08:12:38;;;;;;;8.80;5.07;;;;;;;;;;5039864;28;20238;-85
2022/03/19 08:15:05;;;;;;;9.83;5.03;;;;;;;;;;5018493;28;20318;-84
2022/03/19 08:17:34;;;;;;;9.23;5.17;;;;;;;;;;5016240;28;20652;-84
2022/03/19 08:20:02;;;;;;;12.00;4.83;;;;;;;;;;5016375;28;20199;-84
2022/03/19 08:22:29;;;;;;;14.07;5.27;;;;;;;;;;5025580;28;20879;-85
2022/03/19 08:24:56;;;;;;;10.93;5.83;;;;;;;;;;5037021;28;20216;-85
2022/03/19 08:27:24;;;;;;;10.77;5.30;;;;;;;;;;5024427;28;20239;-85
2022/03/19 08:29:52;;;;;;;6.27;4.70;;;;;;;;;;5015738;28;20269;-86
2022/03/19 08:32:20;;;;;;;14.73;5.80;;;;;;;;;;5014502;28;20235;-86
2022/03/19 08:34:49;;;;;;;7.60;4.70;;;;;;;;;;5015568;28;20216;-85
2022/03/19 08:37:16;;;;;;;8.50;5.00;;;;;;;;;;5014341;28;20231;-86
2022/03/19 08:42:28;;;;;;;6.53;4.03;;;;;;;;;;4995890;28;20275;-85
2022/03/19 08:44:56;;;;;;;6.30;3.87;;;;;;;;;;4996252;28;20215;-85
2022/03/19 08:47:23;;;;;;;5.07;4.00;;;;;;;;;;5013735;28;20239;-86
2022/03/19 08:49:51;;;;;;;9.20;4.10;;;;;;;;;;5015588;28;20576;-86
2022/03/19 08:52:18;;;;;;;9.60;3.70;;;;;;;;;;5014988;28;20238;-87
2022/03/19 08:54:45;;;;;;;6.33;3.60;;;;;;;;;;5016143;28;20219;-87
2022/03/19 08:57:14;;;;;;;8.90;4.13;;;;;;;;;;5015314;28;20246;-86
2022/03/19 08:59:41;;;;;;;6.67;4.27;;;;;;;;;;5015504;28;20684;-86
2022/03/19 09:02:08;;;;;;;5.20;3.40;;;;;;;;;;5014960;28;20750;-86
2022/03/19 09:04:35;;;;;;;4.67;3.43;;;;;;;;;;5015275;28;20207;-86
2022/03/19 09:07:04;;;;;;;7.43;3.63;;;;;;;;;;5014449;28;20243;-86
2022/03/19 09:09:31;;;;;;;4.93;3.60;;;;;;;;;;5014698;28;20218;-86
2022/03/19 09:11:58;;;;;;;7.60;3.80;;;;;;;;;;5014005;28;20235;-86
2022/03/19 09:14:25;;;;;;;7.07;3.63;;;;;;;;;;5015153;28;20214;-85
2022/03/19 09:16:52;;;;;;;6.57;3.17;;;;;;;;;;5014375;28;20336;-85
2022/03/19 09:19:19;;;;;;;7.30;3.73;;;;;;;;;;5015489;28;20211;-86
2022/03/19 09:21:46;;;;;;;6.03;3.63;;;;;;;;;;5014675;28;20294;-86
2022/03/19 09:24:15;;;;;;;4.63;3.17;;;;;;;;;;5015534;28;20609;-86
2022/03/19 09:26:42;;;;;;;5.40;3.40;;;;;;;;;;5013963;28;20267;-87
2022/03/19 09:29:09;;;;;;;6.03;3.00;;;;;;;;;;5014566;28;20207;-86
2022/03/19 09:31:36;;;;;;;8.20;3.70;;;;;;;;;;5013883;28;20242;-86
2022/03/19 09:34:03;;;;;;;6.40;3.27;;;;;;;;;;5014308;28;20215;-86
2022/03/19 09:36:31;;;;;;;3.67;2.50;;;;;;;;;;5013017;28;20259;-86
2022/03/19 09:38:58;;;;;;;5.90;3.60;;;;;;;;;;5014431;28;20239;-86
2022/03/19 09:41:26;;;;;;;7.67;2.80;;;;;;;;;;5013687;28;20246;-87
2022/03/19 09:43:54;;;;;;;4.37;2.83;;;;;;;;;;5014646;28;20215;-86
2022/03/19 09:46:21;;;;;;;5.83;3.00;;;;;;;;;;5013978;28;20255;-86
2022/03/19 09:48:52;;;;;;;5.80;2.73;;;;;;;;;;5023110;28;20221;-87
2022/03/19 09:51:21;;;;;;;3.73;2.90;;;;;;;;;;5043241;28;20236;-85
2022/03/19 09:53:49;;;;;;;5.97;3.20;;;;;;;;;;5044017;28;20206;-84
2022/03/19 09:56:17;;;;;;;3.80;2.70;;;;;;;;;;5033066;28;20231;-84
2022/03/19 09:58:48;;;;;;;4.27;2.87;;;;;;;;;;5013881;28;20291;-85
2022/03/19 10:01:18;;;;;;;6.10;3.10;;;;;;;;;;5013046;28;20265;-84
2022/03/19 10:03:46;;;;;;;3.17;2.40;;;;;;;;;;5029743;28;20272;-86
2022/03/19 10:08:59;;;;;;;3.27;2.40;;;;;;;;;;5015090;28;20203;-86
2022/03/19 10:11:30;;;;;;;4.33;2.53;;;;;;;;;;5012569;28;20243;-84
2022/03/19 10:13:59;;;;;;;3.47;2.40;;;;;;;;;;5014291;28;20615;-87
2022/03/19 10:16:28;;;;;;;6.57;2.50;;;;;;;;;;5012889;28;20323;-85
2022/03/19 10:18:56;;;;;;;3.53;2.03;;;;;;;;;;5012894;28;20214;-85
2022/03/19 10:21:23;;;;;;;3.50;2.03;;;;;;;;;;5014765;28;20243;-86
2022/03/19 10:23:50;;;;;;;3.57;2.17;;;;;;;;;;5033054;28;20233;-85
2022/03/19 10:26:24;;;;;;;5.23;2.03;;;;;;;;;;5032711;28;20238;-84
2022/03/19 10:28:57;;;;;;;3.97;2.50;;;;;;;;;;5019461;28;20233;-86
2022/03/19 10:31:31;;;;;;;2.77;1.97;;;;;;;;;;5012844;28;20596;-86
2022/03/19 10:33:58;;;;;;;2.25;1.88;;;;;;;;;;5013958;28;20245;-86
2022/03/19 10:36:30;;;;;;;2.60;2.00;;;;;;;;;;5013267;28;20258;-85
2022/03/19 10:38:57;;;;;;;4.60;2.10;;;;;;;;;;5012658;28;20298;-88
2022/03/19 10:41:24;;;;;;;3.55;2.10;;;;;;;;;;5012940;28;20239;-87
2022/03/19 10:43:51;;;;;;;2.92;2.00;;;;;;;;;;5014920;28;20295;-85
2022/03/19 10:46:21;;;;;;;7.63;1.92;;;;;;;;;;5032306;28;20244;-86
2022/03/19 10:48:54;;;;;;;2.97;1.60;;;;;;;;;;5013071;28;20565;-86
2022/03/19 10:51:21;;;;;;;2.03;1.55;;;;;;;;;;5012198;28;20259;-85
2022/03/19 10:53:50;;;;;;;3.88;2.05;;;;;;;;;;5012832;28;20227;-85
2022/03/19 10:56:17;;;;;;;4.30;2.05;;;;;;;;;;5012081;28;20242;-87
2022/03/19 10:58:44;;;;;;;1.75;1.60;;;;;;;;;;5013357;28;20215;-87
2022/03/19 11:01:12;;;;;;;2.42;1.80;;;;;;;;;;5012236;28;20826;-84
2022/03/19 11:03:40;;;;;;;1.67;1.48;;;;;;;;;;5027239;28;20187;-84
2022/03/19 11:06:09;;;;;;;1.58;1.48;;;;;;;;;;5032308;28;20617;-85
2022/03/19 11:08:38;;;;;;;2.58;2.20;;;;;;;;;;5032512;28;20686;-87
2022/03/19 11:11:09;;;;;;;3.53;2.10;;;;;;;;;;5032385;28;20238;-85
2022/03/19 11:13:37;;;;;;;3.45;2.40;;;;;;;;;;5033209;28;20640;-85
2022/03/19 11:16:05;;;;;;;2.33;1.80;;;;;;;;;;5032073;28;20238;-86
2022/03/19 11:18:33;;;;;;;2.45;2.25;;;;;;;;;;5032131;28;20211;-86
2022/03/19 11:21:00;;;;;;;4.10;2.28;;;;;;;;;;5031865;28;20234;-84
2022/03/19 11:23:32;;;;;;;4.75;2.00;;;;;;;;;;5039223;28;20191;-85
2022/03/19 11:26:01;;;;;;;2.67;1.75;;;;;;;;;;5024509;28;20234;-85
2022/03/19 11:28:28;;;;;;;2.88;2.08;;;;;;;;;;5031336;28;20619;-85
2022/03/19 11:31:03;;;;;;;1.52;1.38;;;;;;;;;;5032224;28;20230;-84
2022/03/19 11:33:31;;;;;;;2.75;1.67;;;;;;;;;;5031583;28;20226;-85
2022/03/19 11:36:06;;;;;;;2.83;1.50;;;;;;;;;;5031687;28;20230;-85
2022/03/19 11:38:35;;;;;;;2.38;1.88;;;;;;;;;;5012118;28;20739;-85
2022/03/19 11:41:17;;;;;;;1.70;1.60;;;;;;;;;;5016085;28;20235;-87
2022/03/19 11:43:44;;;;;;;2.47;1.48;;;;;;;;;;5012252;28;20531;-87
2022/03/19 11:46:12;;;;;;;2.10;1.40;;;;;;;;;;5012289;28;20231;-87
2022/03/19 11:48:41;;;;;;;2.65;1.27;;;;;;;;;;5012124;28;20666;-87
2022/03/19 11:51:22;;;;;;;3.05;1.65;;;;;;;;;;5014552;28;20243;-89
2022/03/19 11:53:57;;;;;;;1.52;1.10;;;;;;;;;;5015824;28;20227;-86
2022/03/19 11:56:26;;;;;;;2.25;1.35;;;;;;;;;;5015568;28;20231;-85
2022/03/19 11:58:53;;;;;;;1.38;1.27;;;;;;;;;;5015655;28;20203;-87
2022/03/19 12:01:45;;;;;;;1.80;1.05;;;;;;;;;;5015436;28;20246;-86
2022/03/19 12:04:13;;;;;;;2.78;1.10;;;;;;;;;;5015839;28;20203;-86
2022/03/19 12:06:50;;;;;;;2.45;1.17;;;;;;;;;;5015604;28;20309;-86
2022/03/19 12:09:18;;;;;;;2.63;0.85;;;;;;;;;;5015627;28;20694;-87
2022/03/19 12:12:01;;;;;;;2.00;1.40;;;;;;;;;;5015055;28;20266;-87
2022/03/19 12:14:28;;;;;;;0.93;0.70;;;;;;;;;;5015330;28;20203;-88
2022/03/19 12:16:55;;;;;;;1.35;1.00;;;;;;;;;;5015495;28;20738;-87
2022/03/19 12:19:49;;;;;;;1.98;1.08;;;;;;;;;;5015365;28;20208;-86
2022/03/19 12:22:26;;;;;;;2.50;1.05;;;;;;;;;;5014923;28;20246;-86
2022/03/19 12:24:57;;;;;;;1.75;0.82;;;;;;;;;;5016057;28;20187;-87
2022/03/19 12:27:25;;;;;;;1.00;0.85;;;;;;;;;;5014953;28;20246;-88
2022/03/19 12:29:52;;;;;;;1.02;0.80;;;;;;;;;;5015068;28;20199;-89
2022/03/19 12:32:22;;;;;;;2.10;0.60;;;;;;;;;;5014056;28;20238;-87
2022/03/19 12:34:58;;;;;;;0.82;0.80;;;;;;;;;;5015030;28;20587;-87
2022/03/19 12:37:25;;;;;;;1.77;0.77;;;;;;;;;;5014151;28;20265;-87
2022/03/19 12:40:00;;;;;;;0.90;0.60;;;;;;;;;;5014600;28;20203;-87
2022/03/19 12:42:30;;;;;;;0.85;0.55;;;;;;;;;;5014134;28;20226;-86
2022/03/19 12:44:59;;;;;;;0.40;0.40;;;;;;;;;;5015492;28;20207;-87
2022/03/19 12:47:26;;;;;;;1.13;0.80;;;;;;;;;;5014290;28;20239;-87
2022/03/19 12:49:54;;;;;;;0.70;0.70;;;;;;;;;;5015548;28;20230;-86
2022/03/19 12:52:22;;;;;;;0.85;0.60;;;;;;;;;;5014859;28;20247;-87
2022/03/19 12:54:51;;;;;;;3.03;0.90;;;;;;;;;;5015495;28;20242;-87
2022/03/19 12:57:23;;;;;;;2.55;0.77;;;;;;;;;;5014622;28;20235;-86
2022/03/19 12:59:52;;;;;;;1.75;1.00;;;;;;;;;;5015039;28;20195;-86
2022/03/19 13:02:19;;;;;;;1.88;1.10;;;;;;;;;;5030446;28;20235;-86
2022/03/19 13:04:46;;;;;;;0.93;0.82;;;;;;;;;;5034852;28;20206;-86
2022/03/19 13:07:14;;;;;;;0.85;0.85;;;;;;;;;;5033912;28;20742;-86
2022/03/19 13:09:42;;;;;;;1.52;1.15;;;;;;;;;;5034243;28;20211;-87
2022/03/19 13:12:11;;;;;;;1.08;0.85;;;;;;;;;;5033953;28;20234;-87
2022/03/19 13:14:39;;;;;;;1.10;0.85;;;;;;;;;;5034405;28;20229;-87
2022/03/19 13:17:06;;;;;;;1.05;0.88;;;;;;;;;;5033334;28;20928;-86
2022/03/19 13:19:34;;;;;;;0.88;0.85;;;;;;;;;;5034059;28;20214;-85
2022/03/19 13:22:01;;;;;;;0.77;0.77;;;;;;;;;;5032985;28;20269;-87
2022/03/19 13:24:29;;;;;;;1.20;1.15;;;;;;;;;;5015526;28;20212;-87
2022/03/19 13:26:57;;;;;;;0.82;0.82;;;;;;;;;;5017002;28;20235;-86
2022/03/19 13:29:29;;;;;;;2.38;1.17;;;;;;;;;;5031268;28;20241;-86
2022/03/19 13:31:58;;;;;;;1.40;1.30;;;;;;;;;;5027307;28;20319;-86
2022/03/19 13:34:31;;;;;;;1.33;1.25;;;;;;;;;;5016781;28;20227;-86
2022/03/19 13:36:59;;;;;;;1.38;1.27;;;;;;;;;;5017674;28;20235;-86
2022/03/19 13:39:28;;;;;;;1.40;1.20;;;;;;;;;;5015366;28;20207;-88
2022/03/19 13:42:03;;;;;;;2.25;1.40;;;;;;;;;;4997749;28;20236;-87
2022/03/19 13:44:31;;;;;;;1.98;1.30;;;;;;;;;;4994031;28;20227;-88
2022/03/19 13:47:06;;;;;;;3.08;1.58;;;;;;;;;;5006532;28;20237;-87
2022/03/19 13:49:36;;;;;;;1.85;1.17;;;;;;;;;;4998383;28;20576;-86
2022/03/19 13:52:04;;;;;;;2.33;1.42;;;;;;;;;;5009179;28;20246;-86
2022/03/19 13:54:43;;;;;;;1.83;1.23;;;;;;;;;;5012308;28;20231;-86
2022/03/19 13:57:12;;;;;;;2.40;1.52;;;;;;;;;;5012856;28;20285;-85
2022/03/19 13:59:39;;;;;;;1.95;1.13;;;;;;;;;;5012628;28;20207;-87
2022/03/19 14:02:08;;;;;;;3.33;1.30;;;;;;;;;;5012826;28;20238;-86
2022/03/19 14:04:38;;;;;;;2.70;1.20;;;;;;;;;;5013339;28;20725;-85
2022/03/19 14:07:06;;;;;;;1.20;1.10;;;;;;;;;;5012912;28;20235;-85
2022/03/19 14:09:33;;;;;;;1.48;1.23;;;;;;;;;;5012939;28;20199;-85
2022/03/19 14:12:03;;;;;;;1.42;1.00;;;;;;;;;;5016529;28;20226;-86
2022/03/19 14:14:37;;;;;;;1.70;1.05;;;;;;;;;;5032024;28;20219;-85
2022/03/19 14:17:08;;;;;;;1.42;1.13;;;;;;;;;;5020525;28;20246;-84
2022/03/19 14:19:35;;;;;;;1.35;0.98;;;;;;;;;;5012367;28;20195;-82
2022/03/19 14:22:02;;;;;;;1.00;1.00;;;;;;;;;;5012477;28;20243;-85
2022/03/19 14:24:37;;;;;;;2.78;1.10;;;;;;;;;;5013002;28;20203;-89
2022/03/19 14:27:10;;;;;;;2.58;1.35;;;;;;;;;;5013255;28;20238;-89
2022/03/19 14:29:37;;;;;;;1.67;1.13;;;;;;;;;;5013447;28;20196;-90
2022/03/19 14:32:05;;;;;;;1.77;1.10;;;;;;;;;;5012979;28;20589;-89
2022/03/19 14:34:33;;;;;;;1.00;0.98;;;;;;;;;;5013396;28;20226;-88
2022/03/19 14:37:00;;;;;;;2.03;1.08;;;;;;;;;;5012772;28;20242;-88
2022/03/19 14:39:27;;;;;;;2.47;0.90;;;;;;;;;;5012694;28;20191;-88
2022/03/19 14:41:55;;;;;;;1.00;1.00;;;;;;;;;;5013621;28;20603;-89
2022/03/19 14:44:22;;;;;;;1.85;1.27;;;;;;;;;;5013090;28;20198;-88
2022/03/19 14:46:49;;;;;;;2.67;1.05;;;;;;;;;;5012249;28;20234;-88
2022/03/19 14:49:16;;;;;;;1.58;0.80;;;;;;;;;;5013024;28;20212;-88
2022/03/19 14:51:44;;;;;;;2.13;1.10;;;;;;;;;;5012265;28;20235;-89
2022/03/19 14:54:12;;;;;;;2.38;1.20;;;;;;;;;;5013381;28;20227;-88
2022/03/19 14:56:42;;;;;;;1.02;0.85;;;;;;;;;;5012276;28;20235;-89
2022/03/19 14:59:10;;;;;;;2.33;0.90;;;;;;;;;;5013603;28;20311;-89
2022/03/19 15:01:37;;;;;;;2.85;1.10;;;;;;;;;;5012437;28;20227;-89
2022/03/19 15:04:04;;;;;;;2.65;1.05;;;;;;;;;;5020864;28;20199;-88
2022/03/19 15:06:32;;;;;;;2.28;1.02;;;;;;;;;;5025614;28;20253;-87